sensor_id;sensor_type;location;lat;lon;timestamp;P1;durP1;ratioP1;P2;durP2;ratioP2
22152;SDS011;11242;50.536;12.688;2022-07-22T00:02:21;9.98;;;9.02;;
22152;SDS011;11242;50.536;12.688;2022-07-22T00:04:47;10.32;;;9.32;;
22152;SDS011;11242;50.536;12.688;2022-07-22T00:07:13;10.75;;;9.55;;
22152;SDS011;11242;50.536;12.688;2022-07-22T00:09:38;10.10;;;9.13;;
22152;SDS011;11242;50.536;12.688;2022-07-22T00:12:04;11.43;;;9.55;;
22152;SDS011;11242;50.536;12.688;2022-07-22T00:14:30;12.00;;;9.70;;
22152;SDS011;11242;50.536;12.688;2022-07-22T00:16:55;10.90;;;9.73;;
22152;SDS011;11242;50.536;12.688;2022-07-22T00:19:21;10.93;;;9.82;;
22152;SDS011;11242;50.536;12.688;2022-07-22T00:21:49;12.43;;;9.90;;
22152;SDS011;11242;50.536;12.688;2022-07-22T00:24:15;16.45;;;9.25;;
22152;SDS011;11242;50.536;12.688;2022-07-22T00:26:40;11.93;;;9.98;;
22152;SDS011;11242;50.536;12.688;2022-07-22T00:29:06;10.07;;;9.13;;
22152;SDS011;11242;50.536;12.688;2022-07-22T00:31:31;10.65;;;9.57;;
22152;SDS011;11242;50.536;12.688;2022-07-22T00:33:58;11.60;;;9.45;;
22152;SDS011;11242;50.536;12.688;2022-07-22T00:36:26;11.68;;;9.75;;
22152;SDS011;11242;50.536;12.688;2022-07-22T00:38:52;11.68;;;10.13;;
22152;SDS011;11242;50.536;12.688;2022-07-22T00:41:18;10.50;;;9.40;;
22152;SDS011;11242;50.536;12.688;2022-07-22T00:46:31;11.05;;;10.00;;
22152;SDS011;11242;50.536;12.688;2022-07-22T00:48:58;11.00;;;9.88;;
22152;SDS011;11242;50.536;12.688;2022-07-22T00:51:25;12.38;;;9.50;;
22152;SDS011;11242;50.536;12.688;2022-07-22T00:53:52;12.55;;;10.23;;
22152;SDS011;11242;50.536;12.688;2022-07-22T00:56:18;12.73;;;10.27;;
22152;SDS011;11242;50.536;12.688;2022-07-22T00:58:45;11.45;;;10.20;;
22152;SDS011;11242;50.536;12.688;2022-07-22T01:01:12;11.63;;;10.45;;
22152;SDS011;11242;50.536;12.688;2022-07-22T01:03:38;12.05;;;10.32;;
22152;SDS011;11242;50.536;12.688;2022-07-22T01:06:04;12.25;;;10.82;;
22152;SDS011;11242;50.536;12.688;2022-07-22T01:08:30;12.45;;;11.15;;
22152;SDS011;11242;50.536;12.688;2022-07-22T01:11:08;12.48;;;11.23;;
22152;SDS011;11242;50.536;12.688;2022-07-22T01:13:38;11.88;;;10.30;;
22152;SDS011;11242;50.536;12.688;2022-07-22T01:16:05;11.40;;;10.30;;
22152;SDS011;11242;50.536;12.688;2022-07-22T01:18:31;11.95;;;10.70;;
22152;SDS011;11242;50.536;12.688;2022-07-22T01:20:57;11.50;;;10.30;;
22152;SDS011;11242;50.536;12.688;2022-07-22T01:23:24;11.73;;;10.60;;
22152;SDS011;11242;50.536;12.688;2022-07-22T01:25:50;11.90;;;10.45;;
22152;SDS011;11242;50.536;12.688;2022-07-22T01:28:15;12.00;;;10.90;;
22152;SDS011;11242;50.536;12.688;2022-07-22T01:30:41;13.38;;;11.15;;
22152;SDS011;11242;50.536;12.688;2022-07-22T01:33:07;12.02;;;10.90;;
22152;SDS011;11242;50.536;12.688;2022-07-22T01:35:32;12.82;;;11.50;;
22152;SDS011;11242;50.536;12.688;2022-07-22T01:37:58;12.23;;;11.13;;
22152;SDS011;11242;50.536;12.688;2022-07-22T01:40:24;12.20;;;11.10;;
22152;SDS011;11242;50.536;12.688;2022-07-22T01:42:49;12.68;;;11.45;;
22152;SDS011;11242;50.536;12.688;2022-07-22T01:45:15;14.45;;;11.63;;
22152;SDS011;11242;50.536;12.688;2022-07-22T01:47:42;12.15;;;10.98;;
22152;SDS011;11242;50.536;12.688;2022-07-22T01:50:08;12.75;;;11.48;;
22152;SDS011;11242;50.536;12.688;2022-07-22T01:52:35;12.40;;;11.20;;
22152;SDS011;11242;50.536;12.688;2022-07-22T01:55:02;12.82;;;11.15;;
22152;SDS011;11242;50.536;12.688;2022-07-22T01:57:28;15.07;;;11.10;;
22152;SDS011;11242;50.536;12.688;2022-07-22T01:59:54;12.30;;;11.02;;
22152;SDS011;11242;50.536;12.688;2022-07-22T02:02:21;13.32;;;11.52;;
22152;SDS011;11242;50.536;12.688;2022-07-22T02:04:47;12.40;;;11.07;;
22152;SDS011;11242;50.536;12.688;2022-07-22T02:07:12;13.57;;;12.15;;
22152;SDS011;11242;50.536;12.688;2022-07-22T02:09:38;11.90;;;10.70;;
22152;SDS011;11242;50.536;12.688;2022-07-22T02:12:04;13.75;;;11.48;;
22152;SDS011;11242;50.536;12.688;2022-07-22T02:14:36;11.90;;;10.80;;
22152;SDS011;11242;50.536;12.688;2022-07-22T02:17:01;14.25;;;11.25;;
22152;SDS011;11242;50.536;12.688;2022-07-22T02:19:27;12.80;;;11.50;;
22152;SDS011;11242;50.536;12.688;2022-07-22T02:21:52;12.90;;;11.57;;
22152;SDS011;11242;50.536;12.688;2022-07-22T02:24:18;12.57;;;11.35;;
22152;SDS011;11242;50.536;12.688;2022-07-22T02:26:44;15.32;;;11.88;;
22152;SDS011;11242;50.536;12.688;2022-07-22T02:29:11;14.80;;;12.35;;
22152;SDS011;11242;50.536;12.688;2022-07-22T02:31:37;12.13;;;10.95;;
22152;SDS011;11242;50.536;12.688;2022-07-22T02:34:06;13.32;;;11.88;;
22152;SDS011;11242;50.536;12.688;2022-07-22T02:36:31;12.95;;;11.48;;
22152;SDS011;11242;50.536;12.688;2022-07-22T02:38:57;13.75;;;11.82;;
22152;SDS011;11242;50.536;12.688;2022-07-22T02:41:22;12.55;;;10.80;;
22152;SDS011;11242;50.536;12.688;2022-07-22T02:43:52;12.80;;;11.60;;
22152;SDS011;11242;50.536;12.688;2022-07-22T02:46:20;12.68;;;11.48;;
22152;SDS011;11242;50.536;12.688;2022-07-22T02:48:47;13.45;;;12.05;;
22152;SDS011;11242;50.536;12.688;2022-07-22T02:51:16;13.20;;;11.82;;
22152;SDS011;11242;50.536;12.688;2022-07-22T02:53:41;15.30;;;12.30;;
22152;SDS011;11242;50.536;12.688;2022-07-22T02:56:07;13.95;;;11.93;;
22152;SDS011;11242;50.536;12.688;2022-07-22T02:58:33;17.52;;;12.00;;
22152;SDS011;11242;50.536;12.688;2022-07-22T03:00:59;12.68;;;11.32;;
22152;SDS011;11242;50.536;12.688;2022-07-22T03:03:25;12.98;;;11.68;;
22152;SDS011;11242;50.536;12.688;2022-07-22T03:05:52;13.15;;;11.85;;
22152;SDS011;11242;50.536;12.688;2022-07-22T03:08:22;13.52;;;12.10;;
22152;SDS011;11242;50.536;12.688;2022-07-22T03:10:49;13.50;;;12.13;;
22152;SDS011;11242;50.536;12.688;2022-07-22T03:13:14;16.65;;;12.80;;
22152;SDS011;11242;50.536;12.688;2022-07-22T03:15:40;14.23;;;12.13;;
22152;SDS011;11242;50.536;12.688;2022-07-22T03:18:06;14.40;;;12.90;;
22152;SDS011;11242;50.536;12.688;2022-07-22T03:20:31;14.27;;;12.60;;
22152;SDS011;11242;50.536;12.688;2022-07-22T03:22:58;14.90;;;13.40;;
22152;SDS011;11242;50.536;12.688;2022-07-22T03:25:24;17.23;;;12.35;;
22152;SDS011;11242;50.536;12.688;2022-07-22T03:27:49;14.20;;;12.80;;
22152;SDS011;11242;50.536;12.688;2022-07-22T03:30:15;15.27;;;13.18;;
22152;SDS011;11242;50.536;12.688;2022-07-22T03:32:42;14.13;;;12.43;;
22152;SDS011;11242;50.536;12.688;2022-07-22T03:35:13;14.20;;;12.75;;
22152;SDS011;11242;50.536;12.688;2022-07-22T03:37:41;14.63;;;13.07;;
22152;SDS011;11242;50.536;12.688;2022-07-22T03:40:07;14.13;;;12.55;;
22152;SDS011;11242;50.536;12.688;2022-07-22T03:42:34;14.65;;;13.20;;
22152;SDS011;11242;50.536;12.688;2022-07-22T03:44:59;14.60;;;13.10;;
22152;SDS011;11242;50.536;12.688;2022-07-22T03:47:25;14.45;;;13.10;;
22152;SDS011;11242;50.536;12.688;2022-07-22T03:49:51;14.82;;;12.85;;
22152;SDS011;11242;50.536;12.688;2022-07-22T03:54:50;14.32;;;12.65;;
22152;SDS011;11242;50.536;12.688;2022-07-22T03:57:15;15.93;;;12.07;;
22152;SDS011;11242;50.536;12.688;2022-07-22T03:59:41;14.20;;;12.70;;
22152;SDS011;11242;50.536;12.688;2022-07-22T04:02:07;13.75;;;12.35;;
22152;SDS011;11242;50.536;12.688;2022-07-22T04:04:32;12.73;;;11.50;;
22152;SDS011;11242;50.536;12.688;2022-07-22T04:06:58;13.10;;;11.77;;
22152;SDS011;11242;50.536;12.688;2022-07-22T04:09:30;13.93;;;11.90;;
22152;SDS011;11242;50.536;12.688;2022-07-22T04:11:55;13.73;;;12.32;;
22152;SDS011;11242;50.536;12.688;2022-07-22T04:14:23;13.68;;;12.32;;
22152;SDS011;11242;50.536;12.688;2022-07-22T04:16:49;13.38;;;11.88;;
22152;SDS011;11242;50.536;12.688;2022-07-22T04:19:15;14.90;;;12.13;;
22152;SDS011;11242;50.536;12.688;2022-07-22T04:21:52;12.50;;;11.30;;
22152;SDS011;11242;50.536;12.688;2022-07-22T04:24:19;13.90;;;11.82;;
22152;SDS011;11242;50.536;12.688;2022-07-22T04:26:46;13.07;;;11.73;;
22152;SDS011;11242;50.536;12.688;2022-07-22T04:29:11;14.93;;;12.30;;
22152;SDS011;11242;50.536;12.688;2022-07-22T04:31:38;13.25;;;11.85;;
22152;SDS011;11242;50.536;12.688;2022-07-22T04:34:08;15.68;;;11.90;;
22152;SDS011;11242;50.536;12.688;2022-07-22T04:36:34;18.13;;;16.05;;
22152;SDS011;11242;50.536;12.688;2022-07-22T04:39:00;16.83;;;15.02;;
22152;SDS011;11242;50.536;12.688;2022-07-22T04:41:26;12.27;;;10.98;;
22152;SDS011;11242;50.536;12.688;2022-07-22T04:43:52;11.95;;;10.75;;
22152;SDS011;11242;50.536;12.688;2022-07-22T04:46:21;11.65;;;10.48;;
22152;SDS011;11242;50.536;12.688;2022-07-22T04:48:46;28.17;;;21.33;;
22152;SDS011;11242;50.536;12.688;2022-07-22T04:51:12;26.23;;;19.90;;
22152;SDS011;11242;50.536;12.688;2022-07-22T04:53:38;25.85;;;21.73;;
22152;SDS011;11242;50.536;12.688;2022-07-22T04:56:04;12.27;;;11.05;;
22152;SDS011;11242;50.536;12.688;2022-07-22T04:58:30;12.57;;;10.65;;
22152;SDS011;11242;50.536;12.688;2022-07-22T05:00:57;10.00;;;8.98;;
22152;SDS011;11242;50.536;12.688;2022-07-22T05:03:22;9.75;;;8.88;;
22152;SDS011;11242;50.536;12.688;2022-07-22T05:05:49;9.10;;;8.23;;
22152;SDS011;11242;50.536;12.688;2022-07-22T05:08:23;9.20;;;8.40;;
22152;SDS011;11242;50.536;12.688;2022-07-22T05:10:49;10.07;;;8.57;;
22152;SDS011;11242;50.536;12.688;2022-07-22T05:13:14;9.00;;;8.20;;
22152;SDS011;11242;50.536;12.688;2022-07-22T05:15:40;9.15;;;8.15;;
22152;SDS011;11242;50.536;12.688;2022-07-22T05:18:06;10.27;;;8.60;;
22152;SDS011;11242;50.536;12.688;2022-07-22T05:20:32;8.43;;;7.63;;
22152;SDS011;11242;50.536;12.688;2022-07-22T05:22:57;8.55;;;7.70;;
22152;SDS011;11242;50.536;12.688;2022-07-22T05:25:26;8.40;;;7.60;;
22152;SDS011;11242;50.536;12.688;2022-07-22T05:27:53;9.65;;;7.90;;
22152;SDS011;11242;50.536;12.688;2022-07-22T05:30:40;32.47;;;8.15;;
22152;SDS011;11242;50.536;12.688;2022-07-22T05:33:06;8.20;;;7.47;;
22152;SDS011;11242;50.536;12.688;2022-07-22T05:35:50;8.68;;;7.78;;
22152;SDS011;11242;50.536;12.688;2022-07-22T05:38:18;9.07;;;8.18;;
22152;SDS011;11242;50.536;12.688;2022-07-22T05:40:43;9.13;;;8.40;;
22152;SDS011;11242;50.536;12.688;2022-07-22T05:43:09;8.10;;;7.28;;
22152;SDS011;11242;50.536;12.688;2022-07-22T05:45:35;8.10;;;7.40;;
22152;SDS011;11242;50.536;12.688;2022-07-22T05:48:00;8.05;;;7.32;;
22152;SDS011;11242;50.536;12.688;2022-07-22T05:50:27;8.20;;;7.50;;
22152;SDS011;11242;50.536;12.688;2022-07-22T05:52:54;10.45;;;6.88;;
22152;SDS011;11242;50.536;12.688;2022-07-22T05:55:20;10.30;;;8.07;;
22152;SDS011;11242;50.536;12.688;2022-07-22T05:57:46;11.93;;;9.73;;
22152;SDS011;11242;50.536;12.688;2022-07-22T06:00:12;20.52;;;18.52;;
22152;SDS011;11242;50.536;12.688;2022-07-22T06:02:41;11.10;;;10.20;;
22152;SDS011;11242;50.536;12.688;2022-07-22T06:05:11;13.55;;;12.23;;
22152;SDS011;11242;50.536;12.688;2022-07-22T06:07:37;11.45;;;10.35;;
22152;SDS011;11242;50.536;12.688;2022-07-22T06:10:03;8.23;;;7.53;;
22152;SDS011;11242;50.536;12.688;2022-07-22T06:12:31;8.90;;;8.10;;
22152;SDS011;11242;50.536;12.688;2022-07-22T06:14:57;8.25;;;7.55;;
22152;SDS011;11242;50.536;12.688;2022-07-22T06:17:22;8.30;;;7.50;;
22152;SDS011;11242;50.536;12.688;2022-07-22T06:19:48;8.55;;;7.75;;
22152;SDS011;11242;50.536;12.688;2022-07-22T06:22:14;7.85;;;7.35;;
22152;SDS011;11242;50.536;12.688;2022-07-22T06:24:42;8.50;;;7.72;;
22152;SDS011;11242;50.536;12.688;2022-07-22T06:27:09;8.82;;;7.93;;
22152;SDS011;11242;50.536;12.688;2022-07-22T06:29:35;8.80;;;8.00;;
22152;SDS011;11242;50.536;12.688;2022-07-22T06:32:01;8.82;;;8.07;;
22152;SDS011;11242;50.536;12.688;2022-07-22T06:34:27;9.10;;;8.23;;
22152;SDS011;11242;50.536;12.688;2022-07-22T06:37:03;9.00;;;8.18;;
22152;SDS011;11242;50.536;12.688;2022-07-22T06:39:29;8.15;;;7.53;;
22152;SDS011;11242;50.536;12.688;2022-07-22T06:42:15;9.10;;;7.78;;
22152;SDS011;11242;50.536;12.688;2022-07-22T06:44:51;9.75;;;8.35;;
22152;SDS011;11242;50.536;12.688;2022-07-22T06:47:46;9.00;;;8.10;;
22152;SDS011;11242;50.536;12.688;2022-07-22T06:50:13;7.80;;;7.20;;
22152;SDS011;11242;50.536;12.688;2022-07-22T06:52:40;10.35;;;7.47;;
22152;SDS011;11242;50.536;12.688;2022-07-22T06:55:06;7.50;;;6.90;;
22152;SDS011;11242;50.536;12.688;2022-07-22T06:57:36;8.35;;;7.55;;
22152;SDS011;11242;50.536;12.688;2022-07-22T07:00:03;8.00;;;7.28;;
22152;SDS011;11242;50.536;12.688;2022-07-22T07:02:31;7.95;;;7.20;;
22152;SDS011;11242;50.536;12.688;2022-07-22T07:05:00;8.02;;;7.43;;
22152;SDS011;11242;50.536;12.688;2022-07-22T07:07:26;7.90;;;7.15;;
22152;SDS011;11242;50.536;12.688;2022-07-22T07:09:56;7.90;;;7.30;;
22152;SDS011;11242;50.536;12.688;2022-07-22T07:12:34;9.50;;;7.72;;
22152;SDS011;11242;50.536;12.688;2022-07-22T07:15:17;8.63;;;7.78;;
22152;SDS011;11242;50.536;12.688;2022-07-22T07:17:43;9.95;;;8.00;;
22152;SDS011;11242;50.536;12.688;2022-07-22T07:20:13;9.43;;;7.70;;
22152;SDS011;11242;50.536;12.688;2022-07-22T07:22:38;8.68;;;7.88;;
22152;SDS011;11242;50.536;12.688;2022-07-22T07:25:05;8.40;;;7.60;;
22152;SDS011;11242;50.536;12.688;2022-07-22T07:27:33;8.55;;;7.85;;
22152;SDS011;11242;50.536;12.688;2022-07-22T07:30:00;8.45;;;7.75;;
22152;SDS011;11242;50.536;12.688;2022-07-22T07:32:26;7.65;;;7.03;;
22152;SDS011;11242;50.536;12.688;2022-07-22T07:34:51;8.38;;;7.55;;
22152;SDS011;11242;50.536;12.688;2022-07-22T07:37:17;8.57;;;7.78;;
22152;SDS011;11242;50.536;12.688;2022-07-22T07:39:43;9.30;;;7.20;;
22152;SDS011;11242;50.536;12.688;2022-07-22T07:42:08;8.68;;;7.88;;
22152;SDS011;11242;50.536;12.688;2022-07-22T07:44:34;7.95;;;7.15;;
22152;SDS011;11242;50.536;12.688;2022-07-22T07:47:01;8.43;;;7.63;;
22152;SDS011;11242;50.536;12.688;2022-07-22T07:49:26;8.82;;;7.68;;
22152;SDS011;11242;50.536;12.688;2022-07-22T07:51:52;8.48;;;7.68;;
22152;SDS011;11242;50.536;12.688;2022-07-22T07:54:18;9.18;;;7.43;;
22152;SDS011;11242;50.536;12.688;2022-07-22T07:56:45;8.43;;;7.45;;
22152;SDS011;11242;50.536;12.688;2022-07-22T07:59:11;8.00;;;7.15;;
22152;SDS011;11242;50.536;12.688;2022-07-22T08:01:38;8.13;;;7.45;;
22152;SDS011;11242;50.536;12.688;2022-07-22T08:04:04;10.02;;;7.72;;
22152;SDS011;11242;50.536;12.688;2022-07-22T08:06:30;8.05;;;7.28;;
22152;SDS011;11242;50.536;12.688;2022-07-22T08:08:55;9.68;;;7.47;;
22152;SDS011;11242;50.536;12.688;2022-07-22T08:11:30;8.25;;;7.55;;
22152;SDS011;11242;50.536;12.688;2022-07-22T08:14:05;8.05;;;7.38;;
22152;SDS011;11242;50.536;12.688;2022-07-22T08:16:42;8.68;;;7.88;;
22152;SDS011;11242;50.536;12.688;2022-07-22T08:19:08;9.05;;;7.95;;
22152;SDS011;11242;50.536;12.688;2022-07-22T08:21:34;8.35;;;7.60;;
22152;SDS011;11242;50.536;12.688;2022-07-22T08:24:13;8.57;;;7.78;;
22152;SDS011;11242;50.536;12.688;2022-07-22T08:26:38;8.68;;;7.72;;
22152;SDS011;11242;50.536;12.688;2022-07-22T08:29:04;8.52;;;7.78;;
22152;SDS011;11242;50.536;12.688;2022-07-22T08:31:32;7.93;;;7.32;;
22152;SDS011;11242;50.536;12.688;2022-07-22T08:34:03;9.40;;;7.70;;
22152;SDS011;11242;50.536;12.688;2022-07-22T08:36:29;7.85;;;7.15;;
22152;SDS011;11242;50.536;12.688;2022-07-22T08:38:56;9.65;;;8.27;;
22152;SDS011;11242;50.536;12.688;2022-07-22T08:41:22;8.70;;;7.80;;
22152;SDS011;11242;50.536;12.688;2022-07-22T08:43:49;8.65;;;7.63;;
22152;SDS011;11242;50.536;12.688;2022-07-22T08:46:15;8.57;;;7.72;;
22152;SDS011;11242;50.536;12.688;2022-07-22T08:48:59;8.32;;;7.53;;
22152;SDS011;11242;50.536;12.688;2022-07-22T08:51:48;8.38;;;7.68;;
22152;SDS011;11242;50.536;12.688;2022-07-22T08:54:25;9.20;;;8.30;;
22152;SDS011;11242;50.536;12.688;2022-07-22T08:56:51;11.38;;;8.32;;
22152;SDS011;11242;50.536;12.688;2022-07-22T08:59:18;10.40;;;8.77;;
22152;SDS011;11242;50.536;12.688;2022-07-22T09:02:03;11.60;;;8.18;;
22152;SDS011;11242;50.536;12.688;2022-07-22T09:04:36;8.93;;;8.02;;
22152;SDS011;11242;50.536;12.688;2022-07-22T09:09:59;9.00;;;8.20;;
22152;SDS011;11242;50.536;12.688;2022-07-22T09:15:47;8.63;;;7.93;;
22152;SDS011;11242;50.536;12.688;2022-07-22T09:18:46;8.30;;;7.57;;
22152;SDS011;11242;50.536;12.688;2022-07-22T09:21:40;8.88;;;7.72;;
22152;SDS011;11242;50.536;12.688;2022-07-22T09:24:27;17.55;;;8.07;;
22152;SDS011;11242;50.536;12.688;2022-07-22T09:27:23;9.15;;;8.23;;
22152;SDS011;11242;50.536;12.688;2022-07-22T09:30:18;9.15;;;8.20;;
22152;SDS011;11242;50.536;12.688;2022-07-22T09:32:53;8.43;;;7.65;;
22152;SDS011;11242;50.536;12.688;2022-07-22T09:36:00;9.20;;;8.27;;
22152;SDS011;11242;50.536;12.688;2022-07-22T09:38:29;9.40;;;8.43;;
22152;SDS011;11242;50.536;12.688;2022-07-22T09:40:57;10.60;;;8.10;;
22152;SDS011;11242;50.536;12.688;2022-07-22T09:43:23;9.32;;;8.20;;
22152;SDS011;11242;50.536;12.688;2022-07-22T09:45:55;10.32;;;8.60;;
22152;SDS011;11242;50.536;12.688;2022-07-22T09:48:35;9.75;;;8.75;;
22152;SDS011;11242;50.536;12.688;2022-07-22T09:51:22;10.25;;;9.25;;
22152;SDS011;11242;50.536;12.688;2022-07-22T09:54:08;10.70;;;9.38;;
22152;SDS011;11242;50.536;12.688;2022-07-22T09:56:35;10.73;;;9.63;;
22152;SDS011;11242;50.536;12.688;2022-07-22T09:59:01;10.35;;;9.20;;
22152;SDS011;11242;50.536;12.688;2022-07-22T10:01:32;10.63;;;9.43;;
22152;SDS011;11242;50.536;12.688;2022-07-22T10:03:58;11.13;;;9.73;;
22152;SDS011;11242;50.536;12.688;2022-07-22T10:06:25;10.52;;;9.52;;
22152;SDS011;11242;50.536;12.688;2022-07-22T10:08:51;11.07;;;9.60;;
22152;SDS011;11242;50.536;12.688;2022-07-22T10:11:18;10.45;;;9.55;;
22152;SDS011;11242;50.536;12.688;2022-07-22T10:13:44;14.40;;;9.52;;
22152;SDS011;11242;50.536;12.688;2022-07-22T10:16:11;12.02;;;9.85;;
22152;SDS011;11242;50.536;12.688;2022-07-22T10:18:39;10.15;;;9.13;;
22152;SDS011;11242;50.536;12.688;2022-07-22T10:21:09;10.98;;;9.90;;
22152;SDS011;11242;50.536;12.688;2022-07-22T10:23:36;11.50;;;9.10;;
22152;SDS011;11242;50.536;12.688;2022-07-22T10:26:21;10.82;;;9.57;;
22152;SDS011;11242;50.536;12.688;2022-07-22T10:34:40;10.57;;;9.68;;
22152;SDS011;11242;50.536;12.688;2022-07-22T10:45:39;11.82;;;10.10;;
22152;SDS011;11242;50.536;12.688;2022-07-22T10:48:09;10.00;;;9.00;;
22152;SDS011;11242;50.536;12.688;2022-07-22T10:53:03;10.77;;;9.68;;
22152;SDS011;11242;50.536;12.688;2022-07-22T10:55:29;10.07;;;9.07;;
22152;SDS011;11242;50.536;12.688;2022-07-22T10:57:55;11.02;;;10.00;;
22152;SDS011;11242;50.536;12.688;2022-07-22T11:00:21;9.48;;;8.60;;
22152;SDS011;11242;50.536;12.688;2022-07-22T11:02:46;11.93;;;9.68;;
22152;SDS011;11242;50.536;12.688;2022-07-22T11:05:12;10.13;;;9.13;;
22152;SDS011;11242;50.536;12.688;2022-07-22T11:07:42;10.15;;;9.05;;
22152;SDS011;11242;50.536;12.688;2022-07-22T11:10:10;10.02;;;9.02;;
22152;SDS011;11242;50.536;12.688;2022-07-22T11:12:41;10.80;;;9.67;;
22152;SDS011;11242;50.536;12.688;2022-07-22T11:15:07;10.35;;;8.55;;
22152;SDS011;11242;50.536;12.688;2022-07-22T11:17:34;9.80;;;8.55;;
22152;SDS011;11242;50.536;12.688;2022-07-22T11:20:00;10.07;;;9.02;;
22152;SDS011;11242;50.536;12.688;2022-07-22T11:22:28;10.23;;;9.23;;
22152;SDS011;11242;50.536;12.688;2022-07-22T11:24:54;13.57;;;9.48;;
22152;SDS011;11242;50.536;12.688;2022-07-22T11:27:20;9.90;;;8.90;;
22152;SDS011;11242;50.536;12.688;2022-07-22T11:29:51;9.40;;;8.50;;
22152;SDS011;11242;50.536;12.688;2022-07-22T11:32:19;15.85;;;8.60;;
22152;SDS011;11242;50.536;12.688;2022-07-22T11:34:49;11.07;;;8.63;;
22152;SDS011;11242;50.536;12.688;2022-07-22T11:37:16;10.00;;;9.00;;
22152;SDS011;11242;50.536;12.688;2022-07-22T11:39:43;9.50;;;8.63;;
22152;SDS011;11242;50.536;12.688;2022-07-22T11:42:09;10.18;;;9.15;;
22152;SDS011;11242;50.536;12.688;2022-07-22T11:44:36;10.13;;;8.88;;
22152;SDS011;11242;50.536;12.688;2022-07-22T11:47:03;12.38;;;8.48;;
22152;SDS011;11242;50.536;12.688;2022-07-22T11:49:31;9.88;;;9.07;;
22152;SDS011;11242;50.536;12.688;2022-07-22T11:51:59;10.60;;;8.60;;
22152;SDS011;11242;50.536;12.688;2022-07-22T11:54:25;14.10;;;8.93;;
22152;SDS011;11242;50.536;12.688;2022-07-22T11:56:51;13.27;;;9.00;;
22152;SDS011;11242;50.536;12.688;2022-07-22T11:59:17;11.35;;;8.93;;
22152;SDS011;11242;50.536;12.688;2022-07-22T12:01:43;9.40;;;8.52;;
22152;SDS011;11242;50.536;12.688;2022-07-22T12:04:11;10.20;;;8.20;;
22152;SDS011;11242;50.536;12.688;2022-07-22T12:06:39;9.98;;;8.98;;
22152;SDS011;11242;50.536;12.688;2022-07-22T12:09:08;9.98;;;8.63;;
22152;SDS011;11242;50.536;12.688;2022-07-22T12:11:37;9.65;;;8.70;;
22152;SDS011;11242;50.536;12.688;2022-07-22T12:14:08;9.63;;;8.45;;
22152;SDS011;11242;50.536;12.688;2022-07-22T12:16:35;8.77;;;7.88;;
22152;SDS011;11242;50.536;12.688;2022-07-22T12:19:09;9.88;;;8.27;;
22152;SDS011;11242;50.536;12.688;2022-07-22T12:24:31;8.98;;;8.18;;
22152;SDS011;11242;50.536;12.688;2022-07-22T12:27:05;10.80;;;8.45;;
22152;SDS011;11242;50.536;12.688;2022-07-22T12:32:02;9.48;;;8.50;;
22152;SDS011;11242;50.536;12.688;2022-07-22T12:34:39;9.38;;;8.13;;
22152;SDS011;11242;50.536;12.688;2022-07-22T12:37:27;9.77;;;8.23;;
22152;SDS011;11242;50.536;12.688;2022-07-22T12:40:02;10.68;;;8.85;;
22152;SDS011;11242;50.536;12.688;2022-07-22T12:42:30;12.15;;;8.75;;
22152;SDS011;11242;50.536;12.688;2022-07-22T12:44:59;9.23;;;8.35;;
22152;SDS011;11242;50.536;12.688;2022-07-22T12:47:39;9.00;;;8.07;;
22152;SDS011;11242;50.536;12.688;2022-07-22T12:50:27;9.55;;;8.60;;
22152;SDS011;11242;50.536;12.688;2022-07-22T12:55:33;9.52;;;8.07;;
22152;SDS011;11242;50.536;12.688;2022-07-22T12:58:01;10.05;;;8.10;;
22152;SDS011;11242;50.536;12.688;2022-07-22T13:00:30;9.55;;;8.38;;
22152;SDS011;11242;50.536;12.688;2022-07-22T13:02:57;9.50;;;8.25;;
22152;SDS011;11242;50.536;12.688;2022-07-22T13:05:24;8.85;;;8.00;;
22152;SDS011;11242;50.536;12.688;2022-07-22T13:07:51;9.30;;;8.40;;
22152;SDS011;11242;50.536;12.688;2022-07-22T13:10:21;9.23;;;8.35;;
22152;SDS011;11242;50.536;12.688;2022-07-22T13:12:48;9.07;;;8.38;;
22152;SDS011;11242;50.536;12.688;2022-07-22T13:15:15;9.82;;;8.00;;
22152;SDS011;11242;50.536;12.688;2022-07-22T13:17:40;9.18;;;7.55;;
22152;SDS011;11242;50.536;12.688;2022-07-22T13:20:07;11.10;;;7.78;;
22152;SDS011;11242;50.536;12.688;2022-07-22T13:22:34;8.90;;;7.43;;
22152;SDS011;11242;50.536;12.688;2022-07-22T13:25:00;10.02;;;7.97;;
22152;SDS011;11242;50.536;12.688;2022-07-22T13:27:25;11.10;;;8.15;;
22152;SDS011;11242;50.536;12.688;2022-07-22T13:29:51;8.73;;;7.85;;
22152;SDS011;11242;50.536;12.688;2022-07-22T13:32:16;8.88;;;7.93;;
22152;SDS011;11242;50.536;12.688;2022-07-22T13:34:42;8.75;;;7.60;;
22152;SDS011;11242;50.536;12.688;2022-07-22T13:37:08;9.95;;;8.25;;
22152;SDS011;11242;50.536;12.688;2022-07-22T13:39:33;8.70;;;7.72;;
22152;SDS011;11242;50.536;12.688;2022-07-22T13:41:59;8.13;;;7.32;;
22152;SDS011;11242;50.536;12.688;2022-07-22T13:44:24;10.90;;;7.78;;
22152;SDS011;11242;50.536;12.688;2022-07-22T13:46:50;8.82;;;7.78;;
22152;SDS011;11242;50.536;12.688;2022-07-22T13:49:16;10.18;;;7.97;;
22152;SDS011;11242;50.536;12.688;2022-07-22T13:51:41;8.27;;;7.47;;
22152;SDS011;11242;50.536;12.688;2022-07-22T13:54:07;8.70;;;7.80;;
22152;SDS011;11242;50.536;12.688;2022-07-22T13:56:32;11.45;;;7.68;;
22152;SDS011;11242;50.536;12.688;2022-07-22T13:58:59;11.27;;;7.65;;
22152;SDS011;11242;50.536;12.688;2022-07-22T14:01:25;9.32;;;8.40;;
22152;SDS011;11242;50.536;12.688;2022-07-22T14:03:51;8.65;;;7.85;;
22152;SDS011;11242;50.536;12.688;2022-07-22T14:06:16;8.95;;;8.02;;
22152;SDS011;11242;50.536;12.688;2022-07-22T14:08:42;12.32;;;7.93;;
22152;SDS011;11242;50.536;12.688;2022-07-22T14:11:08;8.32;;;7.53;;
22152;SDS011;11242;50.536;12.688;2022-07-22T14:13:33;8.82;;;7.70;;
22152;SDS011;11242;50.536;12.688;2022-07-22T14:15:59;10.23;;;7.75;;
22152;SDS011;11242;50.536;12.688;2022-07-22T14:18:44;9.85;;;7.93;;
22152;SDS011;11242;50.536;12.688;2022-07-22T14:21:10;8.40;;;7.60;;
22152;SDS011;11242;50.536;12.688;2022-07-22T14:23:35;9.32;;;7.20;;
22152;SDS011;11242;50.536;12.688;2022-07-22T14:26:01;8.63;;;7.70;;
22152;SDS011;11242;50.536;12.688;2022-07-22T14:28:26;10.07;;;7.95;;
22152;SDS011;11242;50.536;12.688;2022-07-22T14:30:52;9.25;;;7.95;;
22152;SDS011;11242;50.536;12.688;2022-07-22T14:33:18;11.52;;;7.22;;
22152;SDS011;11242;50.536;12.688;2022-07-22T14:35:43;8.48;;;7.60;;
22152;SDS011;11242;50.536;12.688;2022-07-22T14:38:09;8.18;;;7.38;;
22152;SDS011;11242;50.536;12.688;2022-07-22T14:40:34;8.95;;;8.05;;
22152;SDS011;11242;50.536;12.688;2022-07-22T14:43:00;8.48;;;7.72;;
22152;SDS011;11242;50.536;12.688;2022-07-22T14:45:25;8.70;;;7.88;;
22152;SDS011;11242;50.536;12.688;2022-07-22T14:47:51;8.00;;;7.15;;
22152;SDS011;11242;50.536;12.688;2022-07-22T14:50:16;9.30;;;7.63;;
22152;SDS011;11242;50.536;12.688;2022-07-22T14:52:42;8.32;;;7.45;;
22152;SDS011;11242;50.536;12.688;2022-07-22T14:55:07;13.65;;;7.85;;
22152;SDS011;11242;50.536;12.688;2022-07-22T14:57:33;8.80;;;8.10;;
22152;SDS011;11242;50.536;12.688;2022-07-22T14:59:58;8.38;;;7.38;;
22152;SDS011;11242;50.536;12.688;2022-07-22T15:02:24;8.38;;;7.63;;
22152;SDS011;11242;50.536;12.688;2022-07-22T15:04:50;7.80;;;7.05;;
22152;SDS011;11242;50.536;12.688;2022-07-22T15:07:15;9.88;;;7.80;;